Time;durP1;ratioP1;P1;durP2;ratioP2;P2;SDS_P1;SDS_P2;PMS_P1;PMS_P2;Temp;Humidity;BMP_temperature;BMP_pressure;BME280_temperature;BME280_humidity;BME280_pressure;Samples;Min_cycle;Max_cycle;Signal;HPM_P1;HPM_P2
2021/04/24 00:02:17;;;;;;;7.32;5.35;;;10.00;99.90;;;9.31;78.05;101368.31;5064481;28;20199;-44
2021/04/24 00:04:43;;;;;;;7.78;6.15;;;9.90;99.90;;;9.26;78.46;101367.84;5067689;28;20032;-42
2021/04/24 00:07:10;;;;;;;7.38;5.78;;;9.90;99.90;;;9.20;78.65;101371.72;5067331;28;20067;-42
2021/04/24 00:09:36;;;;;;;9.32;5.20;;;9.80;99.90;;;9.19;78.93;101364.03;5067238;28;20128;-42
2021/04/24 00:12:04;;;;;;;7.97;5.55;;;9.80;99.90;;;9.21;79.15;101373.38;5067322;28;20041;-45
2021/04/24 00:14:30;;;;;;;10.60;5.55;;;9.80;99.90;;;9.27;78.76;101377.28;5067575;28;20032;-44
2021/04/24 00:16:56;;;;;;;8.40;5.25;;;9.80;99.90;;;9.22;78.62;101369.00;5067397;28;20063;-40
2021/04/24 00:19:22;;;;;;;8.80;6.45;;;9.80;99.90;;;9.15;78.92;101373.00;5067741;28;20071;-42
2021/04/24 00:21:48;;;;;;;10.90;6.30;;;9.70;99.90;;;9.10;79.32;101372.50;5065983;28;20143;-46
2021/04/24 00:24:14;;;;;;;8.98;6.05;;;9.70;99.90;;;9.05;79.32;101370.25;5067321;28;20042;-41
2021/04/24 00:26:40;;;;;;;7.18;5.82;;;9.60;99.90;;;9.00;79.69;101369.75;5067557;28;20029;-47
2021/04/24 00:29:07;;;;;;;11.05;5.90;;;9.60;99.90;;;8.93;80.03;101366.78;5067100;28;20056;-43
2021/04/24 00:31:33;;;;;;;9.95;5.70;;;9.50;99.90;;;8.85;80.27;101366.53;5067326;28;20428;-46
2021/04/24 00:33:59;;;;;;;6.25;5.03;;;9.50;99.90;;;8.79;80.38;101366.97;5067203;28;20060;-44
2021/04/24 00:36:25;;;;;;;5.38;3.90;;;9.40;99.90;;;8.92;78.83;101361.72;5067181;28;20032;-45
2021/04/24 00:38:51;;;;;;;4.80;2.83;;;9.40;99.90;;;9.15;76.19;101365.19;5067380;28;20492;-42
2021/04/24 00:41:17;;;;;;;6.85;3.13;;;9.60;99.90;;;9.24;75.34;101360.16;5067253;28;20409;-42
2021/04/24 00:43:43;;;;;;;5.85;3.40;;;9.70;99.90;;;9.24;75.29;101365.34;5067003;28;20032;-45
2021/04/24 00:46:15;;;;;;;6.55;3.17;;;9.70;99.90;;;9.24;75.13;101357.56;5067085;28;20051;-45
2021/04/24 00:48:41;;;;;;;5.45;3.20;;;9.70;99.90;;;9.16;75.23;101359.88;5067210;28;20119;-46
2021/04/24 00:51:08;;;;;;;5.25;3.45;;;9.70;99.90;;;9.03;75.77;101353.94;5067160;28;20029;-41
2021/04/24 00:53:36;;;;;;;4.15;3.53;;;9.60;99.90;;;8.87;76.61;101350.81;5067190;28;20079;-47
2021/04/24 00:56:03;;;;;;;5.50;3.33;;;9.50;99.90;;;8.89;76.51;101347.16;5067015;28;20039;-43
2021/04/24 00:58:29;;;;;;;4.60;3.13;;;9.50;99.90;;;8.91;76.21;101350.47;5067376;28;20065;-44
2021/04/24 01:00:55;;;;;;;4.13;2.25;;;9.50;99.90;;;9.11;73.79;101351.59;5048903;28;20029;-43
2021/04/24 01:03:21;;;;;;;4.18;2.20;;;9.60;99.90;;;9.13;72.51;101343.69;5067235;28;20039;-49
2021/04/24 01:05:47;;;;;;;3.63;2.35;;;9.60;99.90;;;9.11;72.56;101341.19;5067125;28;20036;-44
2021/04/24 01:08:13;;;;;;;5.35;3.13;;;9.60;99.90;;;9.00;73.13;101343.75;5066971;28;20221;-42
2021/04/24 01:10:45;;;;;;;4.38;3.50;;;9.60;99.90;;;8.85;74.13;101343.13;5066867;28;20024;-42
2021/04/24 01:13:13;;;;;;;4.53;3.00;;;9.50;99.90;;;8.84;74.44;101343.25;5066909;28;20028;-44
2021/04/24 01:15:40;;;;;;;5.05;3.45;;;9.40;99.90;;;8.87;74.58;101341.25;5067003;28;20032;-43
2021/04/24 01:18:08;;;;;;;6.30;3.67;;;9.40;99.90;;;8.67;75.84;101348.81;5066859;28;20588;-42
2021/04/24 01:20:36;;;;;;;6.18;3.60;;;9.30;99.90;;;8.57;75.99;101346.06;5067089;28;20117;-40
2021/04/24 01:23:04;;;;;;;5.95;4.03;;;9.20;99.90;;;8.51;76.59;101343.88;5070227;28;20078;-42
2021/04/24 01:25:30;;;;;;;6.45;3.97;;;9.10;99.90;;;8.40;77.30;101349.03;5070589;28;20028;-43
2021/04/24 01:27:59;;;;;;;4.95;4.28;;;9.00;99.90;;;8.33;77.41;101348.66;5070707;28;20040;-42
2021/04/24 01:30:34;;;;;;;5.32;3.13;;;9.00;99.90;;;8.23;78.07;101348.44;5070664;28;20092;-46
2021/04/24 01:33:00;;;;;;;3.95;2.88;;;8.90;99.90;;;8.42;76.80;101341.97;5070563;28;20064;-41
2021/04/24 01:35:30;;;;;;;7.22;3.50;;;8.90;99.90;;;8.79;74.02;101346.16;5070566;28;20028;-45
2021/04/24 01:37:58;;;;;;;4.30;2.10;;;9.20;99.90;;;8.82;73.08;101345.94;5070460;28;20515;-45
2021/04/24 01:40:24;;;;;;;4.60;2.40;;;9.30;99.90;;;8.98;71.73;101343.88;5070703;28;20063;-41
2021/04/24 01:42:51;;;;;;;9.60;2.63;;;9.40;99.90;;;9.04;71.22;101345.19;5070463;28;20029;-42
2021/04/24 01:45:21;;;;;;;4.95;1.75;;;9.50;99.90;;;9.03;70.85;101342.69;5070546;28;20353;-46
2021/04/24 01:47:48;;;;;;;7.53;3.25;;;9.50;99.90;;;8.79;72.44;101351.38;5070365;28;20036;-45
2021/04/24 01:50:19;;;;;;;4.18;3.05;;;9.40;99.90;;;8.49;74.10;101348.41;5070182;28;20032;-45
2021/04/24 01:52:50;;;;;;;4.22;2.97;;;9.30;99.90;;;8.30;74.81;101348.84;5070246;28;20028;-47
2021/04/24 01:55:27;;;;;;;5.53;3.38;;;9.00;99.90;;;8.15;75.66;101348.13;5070124;28;20055;-41
2021/04/24 01:57:56;;;;;;;6.35;3.45;;;8.80;99.90;;;8.07;76.07;101347.84;5070176;28;20040;-43
2021/04/24 02:00:23;;;;;;;9.55;3.30;;;8.70;99.90;;;8.03;76.34;101341.22;5052371;28;20037;-43
2021/04/24 02:02:51;;;;;;;5.43;3.33;;;8.60;99.90;;;8.03;76.11;101346.41;5070102;28;20095;-47
2021/04/24 02:05:18;;;;;;;5.80;3.53;;;8.60;99.90;;;7.94;76.49;101341.88;5069923;28;20039;-44
2021/04/24 02:08:05;;;;;;;7.72;3.70;;;8.60;99.90;;;7.93;76.65;101340.19;5069744;28;20461;-46
2021/04/24 02:10:32;;;;;;;6.32;3.40;;;8.50;99.90;;;7.92;76.93;101347.16;5069921;28;20032;-43
2021/04/24 02:13:14;;;;;;;5.95;3.60;;;8.50;99.90;;;7.97;76.74;101342.47;5070142;28;20043;-47
2021/04/24 02:15:40;;;;;;;4.20;2.33;;;8.50;99.90;;;8.11;75.33;101346.69;5069773;28;20033;-43
2021/04/24 02:18:07;;;;;;;3.85;2.47;;;8.60;99.90;;;8.42;72.74;101342.81;5051498;28;20503;-40
2021/04/24 02:20:35;;;;;;;4.88;1.92;;;8.80;99.90;;;8.51;71.91;101341.28;5069586;28;20766;-44
2021/04/24 02:23:03;;;;;;;5.97;1.60;;;9.00;99.90;;;8.61;71.23;101343.13;5069845;28;20032;-42
2021/04/24 02:25:29;;;;;;;4.63;2.10;;;9.00;99.90;;;8.64;70.91;101347.28;5069878;28;20039;-43
2021/04/24 02:27:55;;;;;;;4.18;1.75;;;9.10;99.90;;;8.60;70.98;101340.63;5069287;28;20045;-43
2021/04/24 02:30:22;;;;;;;11.02;2.80;;;9.10;99.90;;;8.51;71.59;101336.94;5069466;28;20040;-44
2021/04/24 02:32:49;;;;;;;5.00;2.42;;;9.10;99.90;;;8.36;72.95;101338.03;5068656;28;20035;-41
2021/04/24 02:35:20;;;;;;;5.40;2.30;;;9.00;99.90;;;8.22;73.95;101335.56;5069178;28;20036;-44
2021/04/24 02:37:48;;;;;;;3.13;2.70;;;8.90;99.90;;;8.12;74.32;101340.56;5051661;28;20040;-43
2021/04/24 02:42:50;;;;;;;7.95;2.58;;;8.70;99.90;;;8.10;73.97;101339.00;5384174;22;19931;-42
2021/04/24 02:45:17;;;;;;;7.35;3.00;;;8.70;99.90;;;8.07;74.07;101347.00;5069274;28;20128;-45
2021/04/24 02:47:45;;;;;;;4.32;2.35;;;8.60;99.90;;;8.10;73.26;101339.84;5069640;28;20066;-42
2021/04/24 02:50:16;;;;;;;6.35;1.80;;;8.60;99.90;;;8.14;72.72;101337.84;5069442;28;20361;-45
2021/04/24 02:52:44;;;;;;;5.05;2.80;;;8.60;99.90;;;8.30;71.57;101341.03;5069512;28;20028;-44
2021/04/24 02:55:13;;;;;;;11.00;2.17;;;8.80;99.90;;;8.48;70.41;101336.34;5069135;28;20083;-45
2021/04/24 02:57:39;;;;;;;7.95;2.58;;;8.90;99.90;;;8.59;69.99;101329.41;5068918;28;20090;-45
2021/04/24 03:00:09;;;;;;;4.38;2.17;;;9.00;99.90;;;8.62;69.64;101334.41;5069173;28;20071;-46
2021/04/24 03:02:35;;;;;;;15.45;2.63;;;9.10;99.90;;;8.57;69.82;101328.69;5034577;28;20396;-43
2021/04/24 03:05:15;;;;;;;8.70;2.13;;;9.10;99.90;;;8.55;69.96;101327.16;5068761;28;20040;-40
2021/04/24 03:07:42;;;;;;;6.50;1.92;;;9.10;99.90;;;8.53;70.18;101329.03;5050627;28;20036;-43
2021/04/24 03:10:10;;;;;;;4.47;2.20;;;9.10;99.90;;;8.39;70.53;101331.81;5068716;28;20033;-44
2021/04/24 03:12:36;;;;;;;4.82;1.90;;;9.00;99.90;;;8.22;71.09;101323.41;5068467;28;20028;-43
2021/04/24 03:15:06;;;;;;;3.35;1.88;;;8.90;99.90;;;8.15;71.27;101329.97;5068510;28;20432;-43
2021/04/24 03:17:33;;;;;;;4.13;2.47;;;8.80;99.90;;;8.05;71.73;101326.34;5068649;28;20561;-45
2021/04/24 03:19:59;;;;;;;5.10;2.60;;;8.70;99.90;;;7.94;72.07;101326.28;5068404;28;20029;-45
2021/04/24 03:22:25;;;;;;;9.95;2.30;;;8.60;99.90;;;7.84;72.94;101328.69;5068690;28;20375;-45
2021/04/24 03:24:51;;;;;;;3.60;2.30;;;8.50;99.90;;;7.74;73.51;101324.22;5068336;28;20147;-47
2021/04/24 03:27:17;;;;;;;3.92;2.67;;;8.40;99.90;;;7.61;74.22;101327.66;5068312;28;20124;-46
2021/04/24 03:29:43;;;;;;;4.57;2.58;;;8.30;99.90;;;7.61;74.16;101321.63;5068252;28;20670;-40
2021/04/24 03:32:09;;;;;;;4.15;2.50;;;8.20;99.90;;;7.65;73.45;101321.31;5068573;28;20135;-47
2021/04/24 03:34:35;;;;;;;4.78;2.13;;;8.20;99.90;;;7.68;73.49;101322.06;5050233;28;20145;-48
2021/04/24 03:37:01;;;;;;;6.53;2.97;;;8.20;99.90;;;7.63;73.78;101320.59;5068482;28;20032;-48
2021/04/24 03:39:27;;;;;;;5.68;1.92;;;8.20;99.90;;;7.70;72.69;101323.63;5068179;28;20415;-41
2021/04/24 03:41:54;;;;;;;9.10;2.00;;;8.20;99.90;;;7.82;72.57;101311.56;5067705;28;20555;-45
2021/04/24 03:44:21;;;;;;;4.43;2.05;;;8.30;99.90;;;8.01;70.91;101322.34;5067549;28;20025;-42
2021/04/24 03:46:47;;;;;;;7.45;2.20;;;8.50;99.90;;;8.05;71.21;101313.38;5067877;28;20041;-45
2021/04/24 03:49:13;;;;;;;6.00;2.20;;;8.50;99.90;;;8.07;70.71;101321.06;5068204;28;20036;-43
2021/04/24 03:51:40;;;;;;;6.35;2.35;;;8.60;99.90;;;8.08;70.56;101318.34;5067944;28;20812;-43
2021/04/24 03:54:07;;;;;;;2.15;1.58;;;8.60;99.90;;;8.10;70.63;101316.47;5068332;28;20421;-41
2021/04/24 03:56:34;;;;;;;6.25;1.85;;;8.60;99.90;;;8.31;69.26;101311.53;5067945;28;20059;-43
2021/04/24 03:59:01;;;;;;;4.22;1.60;;;8.80;99.90;;;8.31;69.37;101312.38;5067747;28;20491;-43
2021/04/24 04:01:27;;;;;;;10.30;2.33;;;8.80;99.90;;;8.24;69.67;101308.56;5068023;28;20036;-45
2021/04/24 04:03:53;;;;;;;4.97;2.55;;;8.80;99.90;;;8.19;69.35;101304.63;5068150;28;20083;-43
2021/04/24 04:06:19;;;;;;;3.90;1.63;;;8.70;99.90;;;8.29;68.94;101311.66;5067738;28;20126;-43
2021/04/24 04:08:45;;;;;;;4.35;2.47;;;8.80;99.90;;;8.09;70.17;101308.78;5067771;28;20028;-47
2021/04/24 04:11:11;;;;;;;2.80;1.65;;;8.70;99.90;;;7.87;71.08;101315.50;5067714;28;20059;-44
2021/04/24 04:13:37;;;;;;;6.10;1.48;;;8.50;99.90;;;7.82;71.41;101317.59;5067708;28;20115;-46
2021/04/24 04:16:04;;;;;;;4.45;1.80;;;8.40;99.90;;;7.78;71.69;101316.13;5067868;28;20039;-48
2021/04/24 04:18:34;;;;;;;8.70;2.13;;;8.40;99.90;;;7.81;71.59;101318.53;5067988;28;20029;-45
2021/04/24 04:21:01;;;;;;;2.67;1.88;;;8.40;99.90;;;7.79;72.33;101322.16;5067450;28;20043;-44
2021/04/24 04:23:27;;;;;;;11.95;2.22;;;8.40;99.90;;;7.75;72.46;101320.72;5067518;28;20371;-43
2021/04/24 04:25:55;;;;;;;4.85;2.40;;;8.40;99.90;;;7.91;71.42;101316.13;5067129;28;20086;-42
2021/04/24 04:28:21;;;;;;;5.78;2.50;;;8.50;99.90;;;7.89;71.94;101318.81;5067424;28;20036;-41
2021/04/24 04:30:50;;;;;;;8.77;2.50;;;8.60;99.90;;;7.79;72.52;101315.19;5067365;28;20022;-42
2021/04/24 04:33:16;;;;;;;5.43;2.45;;;8.50;99.90;;;7.97;71.32;101326.09;5067658;28;20028;-49
2021/04/24 04:35:43;;;;;;;4.32;2.13;;;8.60;99.90;;;8.18;70.33;101324.56;5067263;28;20466;-43
2021/04/24 04:38:09;;;;;;;4.78;2.22;;;8.70;99.90;;;8.41;70.77;101332.53;5067224;28;20043;-45
2021/04/24 04:40:36;;;;;;;7.95;3.20;;;9.00;99.90;;;8.91;69.46;101327.09;5067086;28;20170;-45
2021/04/24 04:43:03;;;;;;;6.68;3.03;;;9.60;99.90;;;9.25;68.33;101329.78;5067050;28;20094;-43
2021/04/24 04:45:29;;;;;;;4.50;3.45;;;10.10;99.90;;;9.32;67.48;101330.97;5067263;28;20036;-45
2021/04/24 04:47:55;;;;;;;3.25;2.00;;;10.30;99.90;;;9.52;65.82;101325.06;5067346;28;20037;-41
2021/04/24 04:50:28;;;;;;;3.70;2.28;;;10.30;99.90;;;9.72;64.75;101330.53;5067076;28;20495;-44
2021/04/24 04:52:55;;;;;;;6.93;2.20;;;10.40;99.90;;;10.02;63.64;101328.16;5067351;28;20033;-41
2021/04/24 04:55:21;;;;;;;6.32;3.15;;;10.80;99.90;;;10.96;60.91;101330.97;5066986;28;20079;-46
2021/04/24 04:57:47;;;;;;;6.82;2.42;;;12.00;97.10;;;11.74;58.87;101336.66;5070552;28;20036;-45
2021/04/24 05:00:17;;;;;;;10.00;2.78;;;13.30;92.10;;;12.00;57.84;101334.44;5071519;28;20028;-43
2021/04/24 05:02:44;;;;;;;4.97;1.98;;;13.70;88.20;;;12.02;57.72;101338.56;5071336;28;20305;-46
2021/04/24 05:05:11;;;;;;;4.50;1.85;;;13.60;87.00;;;11.64;58.05;101342.66;5071646;28;20046;-45
2021/04/24 05:07:38;;;;;;;6.45;1.80;;;13.00;86.80;;;11.80;57.71;101336.19;5071027;28;20479;-46
2021/04/24 05:10:05;;;;;;;3.45;1.42;;;13.10;88.00;;;11.98;56.15;101342.41;5071394;28;20111;-43
2021/04/24 05:12:31;;;;;;;5.03;2.00;;;13.40;82.90;;;12.50;55.61;101340.47;5071544;28;20041;-41
2021/04/24 05:14:57;;;;;;;4.50;1.65;;;14.00;82.10;;;13.41;53.90;101342.63;5070949;28;20391;-43
2021/04/24 05:17:23;;;;;;;2.28;1.17;;;15.20;77.90;;;13.76;50.44;101338.53;5070863;28;20123;-47
2021/04/24 05:19:49;;;;;;;6.43;1.67;;;16.50;68.30;;;14.00;51.49;101336.22;5071425;28;20194;-42
2021/04/24 05:22:15;;;;;;;9.02;2.17;;;16.80;66.30;;;14.16;50.51;101343.47;5070705;28;20044;-41
2021/04/24 05:24:41;;;;;;;3.15;1.60;;;16.90;63.80;;;13.98;50.44;101339.97;5070796;28;20559;-45
2021/04/24 05:27:07;;;;;;;5.00;1.25;;;17.10;61.90;;;14.32;50.35;101338.38;5070774;28;20040;-44
2021/04/24 05:29:33;;;;;;;5.22;2.28;;;17.20;62.70;;;15.13;47.71;101340.94;5070538;28;20020;-43
2021/04/24 05:31:59;;;;;;;5.43;2.20;;;18.20;59.40;;;15.16;48.06;101343.25;5070883;28;20043;-43
2021/04/24 05:34:25;;;;;;;3.97;1.75;;;18.50;58.00;;;15.54;45.80;101337.63;5070559;28;20059;-46
2021/04/24 05:36:51;;;;;;;4.97;1.67;;;19.00;56.10;;;15.40;47.69;101335.56;5070330;28;20040;-47
2021/04/24 05:39:17;;;;;;;5.07;1.63;;;18.90;55.70;;;15.56;47.98;101340.94;5070714;28;20029;-43
2021/04/24 05:41:43;;;;;;;4.50;2.00;;;19.10;55.80;;;16.15;46.41;101336.56;5070205;28;20036;-47
2021/04/24 05:44:09;;;;;;;6.55;1.95;;;19.20;56.00;;;16.24;42.97;101350.56;5070479;28;20048;-47
2021/04/24 05:46:35;;;;;;;2.83;1.85;;;19.60;52.10;;;15.53;46.95;101343.03;5070451;28;20054;-46
2021/04/24 05:49:03;;;;;;;6.93;1.63;;;19.20;54.60;;;16.50;44.52;101347.84;5070408;28;20127;-45
2021/04/24 05:51:30;;;;;;;4.82;1.90;;;19.90;53.30;;;16.69;43.00;101350.19;5070424;28;20035;-45
2021/04/24 05:53:57;;;;;;;3.75;2.50;;;20.30;51.40;;;16.38;43.66;101344.69;5070323;28;20122;-48
2021/04/24 05:56:23;;;;;;;6.65;2.88;;;20.40;50.40;;;17.65;41.67;101341.53;5070535;28;20128;-44
2021/04/24 05:58:50;;;;;;;8.73;2.25;;;21.30;49.60;;;18.52;39.05;101348.41;5070152;28;20036;-44
2021/04/24 06:01:19;;;;;;;5.63;1.33;;;22.30;46.90;;;18.07;37.90;101346.50;5070179;28;20044;-43
2021/04/24 06:03:45;;;;;;;6.63;1.38;;;22.30;45.60;;;16.98;41.06;101335.75;5069572;28;20099;-43
2021/04/24 06:06:12;;;;;;;3.85;1.42;;;21.30;46.10;;;16.87;41.35;101348.25;5069806;28;20032;-47
2021/04/24 06:08:38;;;;;;;5.43;1.13;;;20.80;47.40;;;17.81;40.77;101341.53;5069600;28;20044;-47
2021/04/24 06:11:04;;;;;;;8.15;1.55;;;21.80;48.20;;;18.62;39.20;101351.66;5070082;28;20036;-46
2021/04/24 06:13:31;;;;;;;5.10;1.23;;;23.10;44.90;;;19.16;38.30;101339.19;5069486;28;20036;-46
2021/04/24 06:15:57;;;;;;;4.30;1.70;;;24.00;44.10;;;20.25;36.44;101339.44;5069719;28;20028;-46
2021/04/24 06:18:25;;;;;;;4.65;1.20;;;24.80;42.50;;;20.67;35.51;101339.50;5051340;28;20064;-47
2021/04/24 06:20:51;;;;;;;5.22;1.60;;;25.30;42.00;;;20.57;35.11;101340.81;5069808;28;20036;-46
2021/04/24 06:23:17;;;;;;;2.95;1.40;;;25.10;41.60;;;20.06;35.96;101343.50;5069404;28;20068;-48
2021/04/24 06:25:43;;;;;;;4.13;1.35;;;25.10;41.10;;;19.96;35.87;101335.84;5069674;28;20025;-44
2021/04/24 06:28:11;;;;;;;6.50;1.42;;;25.20;40.40;;;19.43;36.68;101347.50;5069164;28;20113;-48
2021/04/24 06:30:37;;;;;;;3.83;1.17;;;24.60;41.40;;;20.15;35.81;101343.19;5069727;28;20029;-45
2021/04/24 06:33:04;;;;;;;4.75;1.17;;;24.90;40.70;;;19.55;35.70;101349.53;5069322;28;20037;-48
2021/04/24 06:35:30;;;;;;;5.15;1.45;;;24.50;39.70;;;19.16;36.96;101343.63;5051168;28;20033;-44
2021/04/24 06:37:57;;;;;;;3.90;1.02;;;23.80;41.90;;;19.16;36.35;101343.63;5069263;28;20056;-49
2021/04/24 06:40:25;;;;;;;5.45;1.45;;;23.50;42.10;;;19.15;35.96;101345.47;5069393;28;20127;-47
2021/04/24 06:42:52;;;;;;;3.25;1.13;;;23.50;41.80;;;18.53;37.27;101347.41;5068992;28;20127;-46
2021/04/24 06:45:18;;;;;;;5.45;1.20;;;23.20;41.90;;;18.53;37.56;101342.13;5069025;28;20048;-50
2021/04/24 06:47:46;;;;;;;2.60;1.02;;;23.00;42.40;;;19.02;36.02;101347.88;5063794;28;20442;-48
2021/04/24 06:50:13;;;;;;;2.35;1.00;;;23.50;41.30;;;18.65;36.92;101343.41;5049524;28;20029;-49
2021/04/24 06:52:40;;;;;;;5.03;1.33;;;23.20;41.90;;;18.69;36.92;101354.44;5046341;28;20112;-51
2021/04/24 06:55:08;;;;;;;5.10;1.42;;;23.30;41.70;;;19.19;35.66;101338.81;5048089;28;20041;-49
2021/04/24 06:57:34;;;;;;;7.10;1.20;;;23.80;41.10;;;19.64;35.36;101338.88;5050734;28;20033;-51
2021/04/24 07:00:00;;;;;;;4.90;1.25;;;24.20;40.40;;;19.97;34.47;101337.47;5049071;28;20049;-45
2021/04/24 07:02:26;;;;;;;4.40;1.42;;;23.70;40.70;;;20.37;33.32;101338.75;5048424;28;20087;-46
2021/04/24 07:04:52;;;;;;;5.75;1.73;;;23.20;41.30;;;19.92;34.01;101331.09;5049988;28;20067;-47
2021/04/24 07:07:18;;;;;;;5.72;1.40;;;22.00;43.60;;;19.16;35.65;101333.06;5046371;28;20384;-50
2021/04/24 07:09:44;;;;;;;3.80;1.48;;;20.70;46.50;;;17.94;37.90;101331.28;5046381;28;20033;-50
2021/04/24 07:12:10;;;;;;;3.90;1.70;;;19.50;48.70;;;17.47;39.47;101329.44;5048546;28;20033;-49
2021/04/24 07:14:37;;;;;;;5.10;1.58;;;18.70;50.90;;;17.14;39.60;101338.34;5047394;28;20040;-48
2021/04/24 07:17:03;;;;;;;7.45;1.60;;;18.20;51.50;;;16.95;40.48;101334.25;5051399;28;20060;-50
2021/04/24 07:19:28;;;;;;;4.65;1.40;;;17.80;52.70;;;17.09;40.21;101330.94;5053834;28;20033;-47
2021/04/24 07:21:55;;;;;;;10.40;1.77;;;17.60;53.60;;;17.07;39.94;101324.19;5048976;28;20033;-48
2021/04/24 07:24:21;;;;;;;5.60;1.23;;;17.60;52.80;;;17.18;39.43;101329.13;5050980;28;20508;-50
2021/04/24 07:26:47;;;;;;;7.00;1.10;;;17.60;52.80;;;17.46;38.20;101327.78;5048831;28;20044;-47
2021/04/24 07:29:13;;;;;;;3.92;1.10;;;17.80;51.90;;;17.72;37.84;101324.09;5051946;28;21452;-48
2021/04/24 07:31:39;;;;;;;3.88;0.93;;;18.10;51.70;;;18.10;36.71;101322.44;5046707;28;20082;-41
2021/04/24 07:34:07;;;;;;;6.20;1.15;;;18.50;50.20;;;18.18;36.20;101319.75;5047737;28;20512;-47
2021/04/24 07:36:33;;;;;;;5.85;1.40;;;18.60;49.70;;;18.30;36.74;101325.47;5046807;28;20199;-50
2021/04/24 07:39:00;;;;;;;7.03;1.90;;;18.80;50.40;;;18.57;36.21;101322.31;5048440;28;20162;-46
2021/04/24 07:41:25;;;;;;;5.10;0.80;;;19.10;49.70;;;18.78;35.46;101319.88;5048065;28;20177;-47
2021/04/24 07:43:52;;;;;;;2.83;1.20;;;19.20;49.20;;;18.95;35.39;101325.00;5048256;28;20455;-50
2021/04/24 07:46:19;;;;;;;2.65;0.90;;;19.40;49.10;;;19.00;34.94;101320.00;5047919;28;20027;-49
2021/04/24 07:48:45;;;;;;;3.20;1.00;;;19.60;48.80;;;18.62;35.78;101314.72;5047930;28;20032;-50
2021/04/24 07:51:11;;;;;;;7.28;1.20;;;19.30;49.00;;;18.69;35.21;101312.19;5048286;28;20747;-47
2021/04/24 07:53:37;;;;;;;3.88;1.10;;;19.30;48.50;;;18.89;35.13;101316.00;5047823;28;20078;-50
2021/04/24 07:56:04;;;;;;;4.45;0.90;;;19.30;49.10;;;19.24;34.81;101306.59;5048189;28;20075;-45
2021/04/24 07:58:30;;;;;;;3.53;1.00;;;19.70;49.10;;;19.17;34.87;101309.13;5029606;28;20033;-45
2021/04/24 08:00:56;;;;;;;2.35;0.75;;;19.80;48.60;;;19.08;35.24;101310.19;5029352;28;20391;-45
2021/04/24 08:03:22;;;;;;;4.03;1.38;;;19.70;48.90;;;18.75;35.73;101304.41;5052965;28;20060;-48
2021/04/24 08:05:48;;;;;;;2.65;1.20;;;19.50;48.80;;;18.80;35.08;101303.88;5048918;28;20353;-47
2021/04/24 08:08:14;;;;;;;1.40;0.90;;;19.30;48.80;;;18.87;34.45;101304.78;5047132;28;20040;-48
2021/04/24 08:10:40;;;;;;;4.75;1.00;;;19.30;48.70;;;19.15;34.05;101302.38;5048873;28;20040;-50
2021/04/24 08:13:07;;;;;;;4.70;0.90;;;19.50;48.30;;;19.33;33.90;101302.88;5045680;28;20041;-47
2021/04/24 08:15:33;;;;;;;6.03;1.30;;;19.70;47.80;;;19.69;33.88;101297.69;5052182;28;20067;-50
2021/04/24 08:18:00;;;;;;;6.10;1.05;;;20.00;48.00;;;19.22;34.16;101306.75;5046799;28;20121;-46
2021/04/24 08:20:26;;;;;;;4.43;1.10;;;19.90;47.60;;;19.42;34.24;101295.63;5051962;28;20036;-48
2021/04/24 08:22:53;;;;;;;3.20;0.68;;;20.00;47.90;;;19.59;34.00;101306.88;5050617;28;20025;-47
2021/04/24 08:25:20;;;;;;;4.63;1.13;;;20.10;47.90;;;19.21;34.05;101299.00;5052959;28;20492;-48
2021/04/24 08:27:46;;;;;;;4.78;1.00;;;19.90;47.40;;;19.40;34.14;101302.94;5047053;28;20037;-46
2021/04/24 08:30:14;;;;;;;1.98;0.60;;;19.90;48.00;;;19.40;33.55;101298.47;5045784;28;20045;-45
2021/04/24 08:32:43;;;;;;;4.03;0.90;;;19.80;47.80;;;19.59;33.04;101301.59;5028794;28;20372;-45
2021/04/24 08:35:11;;;;;;;4.68;0.70;;;19.80;47.10;;;19.74;32.69;101292.66;5043442;28;20039;-45
2021/04/24 08:37:38;;;;;;;2.33;1.02;;;19.90;47.10;;;19.73;32.84;101295.50;5047871;28;20044;-45
2021/04/24 08:40:07;;;;;;;4.18;0.77;;;20.00;47.40;;;19.39;32.31;101290.72;5048096;28;20030;-42
2021/04/24 08:42:34;;;;;;;2.67;0.77;;;20.00;46.10;;;19.59;32.23;101291.84;5044225;28;20385;-44
2021/04/24 08:45:00;;;;;;;2.60;1.23;;;20.00;46.10;;;19.30;32.09;101289.19;5052326;28;20032;-47
2021/04/24 08:47:28;;;;;;;6.18;0.93;;;19.80;44.90;;;19.46;31.88;101292.44;5044398;28;20522;-42
2021/04/24 08:49:55;;;;;;;2.90;0.82;;;19.80;45.90;;;20.08;31.16;101284.09;5025986;28;20038;-45
2021/04/24 08:52:23;;;;;;;4.28;0.75;;;20.20;45.60;;;20.61;31.09;101289.94;5045987;28;20041;-48
2021/04/24 08:54:50;;;;;;;2.60;0.85;;;20.80;45.80;;;21.13;31.07;101292.19;5046237;28;20022;-47
2021/04/24 08:57:17;;;;;;;3.22;0.93;;;21.30;45.80;;;20.98;30.27;101280.88;5044191;28;20487;-49
2021/04/24 08:59:43;;;;;;;3.13;0.52;;;21.50;44.10;;;21.03;29.57;101285.59;5044074;28;20063;-46
2021/04/24 09:02:28;;;;;;;4.18;0.82;;;21.40;43.70;;;20.74;28.91;101278.66;5044629;28;20414;-46
2021/04/24 09:05:56;;;;;;;3.92;1.17;;;21.30;42.60;;;21.47;29.10;101272.84;5028782;28;20049;-47
2021/04/24 09:13:19;;;;;;;1.80;0.70;;;21.70;41.40;;;20.23;27.63;101264.72;5026654;28;20169;-46
2021/04/24 09:19:39;;;;;;;1.75;0.55;;;20.70;41.50;;;20.44;29.84;101251.50;4967659;28;20081;-44
2021/04/24 09:22:21;;;;;;;2.03;0.65;;;20.90;43.20;;;21.07;28.79;101253.22;5043630;28;20143;-41
2021/04/24 09:24:51;;;;;;;2.15;0.52;;;21.20;43.20;;;20.90;28.22;101257.16;5043482;28;20113;-42
2021/04/24 09:27:18;;;;;;;4.10;1.25;;;21.40;42.20;;;20.87;28.97;101252.25;5043579;28;20405;-46
2021/04/24 09:29:44;;;;;;;2.70;0.77;;;21.30;42.60;;;20.71;28.40;101242.78;5044120;28;20061;-46
2021/04/24 09:32:17;;;;;;;2.70;0.57;;;21.20;41.40;;;20.45;26.69;101248.66;5041678;28;20124;-49
2021/04/24 09:34:48;;;;;;;6.07;0.90;;;21.00;40.40;;;20.48;28.19;101247.47;5024473;28;20029;-49
2021/04/24 09:37:23;;;;;;;2.53;1.10;;;20.90;42.10;;;20.52;28.53;101230.19;5043805;28;20102;-49
2021/04/24 09:39:53;;;;;;;2.47;1.00;;;20.90;42.40;;;20.34;29.74;101230.63;5043780;28;20508;-48
2021/04/24 09:42:44;;;;;;;4.82;1.40;;;20.80;43.60;;;20.29;29.45;101227.75;5043492;28;20452;-47
2021/04/24 09:45:24;;;;;;;2.75;0.88;;;20.80;43.20;;;20.81;30.50;101224.72;5045624;28;20025;-48
2021/04/24 09:47:51;;;;;;;8.68;2.38;;;21.10;44.70;;;20.41;29.99;101228.06;5047606;28;20243;-48
2021/04/24 09:50:34;;;;;;;4.40;1.58;;;21.10;44.00;;;20.65;30.41;101227.66;5047558;28;20036;-44
2021/04/24 09:53:21;;;;;;;3.72;1.20;;;21.00;44.60;;;21.29;29.27;101219.53;5045625;28;20064;-48
2021/04/24 09:55:50;;;;;;;4.15;1.17;;;21.30;44.00;;;21.58;28.98;101221.09;5047559;28;20481;-46
2021/04/24 09:58:35;;;;;;;4.28;1.65;;;21.70;43.90;;;21.38;28.72;101209.56;5046864;28;20512;-48
2021/04/24 10:01:28;;;;;;;3.42;0.85;;;21.70;43.10;;;21.59;27.30;101208.66;5050113;28;20070;-41
2021/04/24 10:03:55;;;;;;;4.35;1.00;;;21.90;42.20;;;21.99;28.59;101207.72;5048337;28;20032;-43
2021/04/24 10:06:27;;;;;;;3.85;0.73;;;22.10;43.30;;;22.04;28.37;101202.66;5049487;28;20075;-44
2021/04/24 10:09:21;;;;;;;7.03;1.33;;;22.30;42.90;;;21.53;27.65;101192.50;5053989;28;20041;-44
2021/04/24 10:12:02;;;;;;;10.40;1.17;;;22.10;41.00;;;21.63;29.26;101205.41;5070606;28;20032;-46
2021/04/24 10:14:46;;;;;;;5.60;0.90;;;21.90;43.30;;;22.09;28.43;101191.44;5052429;28;20090;-49
2021/04/24 10:17:18;;;;;;;5.53;1.65;;;22.20;43.70;;;22.44;28.79;101189.41;5051221;28;20032;-42
2021/04/24 10:19:46;;;;;;;3.80;1.17;;;22.60;43.70;;;22.59;29.07;101182.06;5050061;28;20590;-51
2021/04/24 10:22:19;;;;;;;2.25;0.77;;;22.80;43.70;;;22.65;28.69;101181.25;5049419;28;20492;-44
2021/04/24 10:24:45;;;;;;;3.72;0.90;;;22.90;43.50;;;22.59;29.20;101168.78;5049684;28;20434;-44
2021/04/24 10:27:14;;;;;;;5.78;1.00;;;23.00;43.10;;;22.75;29.28;101172.81;5049678;28;20029;-44
2021/04/24 10:29:42;;;;;;;4.30;1.10;;;22.90;43.90;;;22.54;29.11;101167.75;5049636;28;20496;-42
2021/04/24 10:32:12;;;;;;;4.55;1.17;;;23.00;43.70;;;22.08;29.49;101163.28;5049521;28;20465;-46
2021/04/24 10:34:39;;;;;;;4.78;0.98;;;22.70;43.30;;;21.89;30.09;101161.38;5049908;28;20029;-47